createdAt,value
2022-10-21T00:00:18.551Z,11.10
2022-10-21T00:02:45.905Z,11.10
2022-10-21T00:05:13.078Z,11.20
2022-10-21T00:07:39.892Z,11.30
2022-10-21T00:10:07.414Z,11.30
2022-10-21T00:12:35.121Z,11.40
2022-10-21T00:15:04.522Z,11.50
2022-10-21T00:17:31.330Z,11.50
2022-10-21T00:19:58.008Z,11.50
2022-10-21T00:22:24.734Z,11.50
2022-10-21T00:24:51.389Z,11.50
2022-10-21T00:27:18.058Z,11.60
2022-10-21T00:29:44.765Z,11.60
2022-10-21T00:32:11.429Z,11.60
2022-10-21T00:34:38.153Z,11.50
2022-10-21T00:37:04.937Z,11.50
2022-10-21T00:39:31.641Z,11.50
2022-10-21T00:41:58.305Z,11.40
2022-10-21T00:44:27.020Z,11.40
2022-10-21T00:47:01.870Z,11.40
2022-10-21T00:49:42.698Z,11.40
2022-10-21T00:52:14.710Z,11.50
2022-10-21T00:54:43.059Z,11.40
2022-10-21T00:57:11.202Z,11.40
2022-10-21T00:59:45.781Z,11.40
2022-10-21T01:02:12.529Z,11.40
2022-10-21T01:04:39.244Z,11.40
2022-10-21T01:07:05.959Z,11.40
2022-10-21T01:09:32.690Z,11.50
2022-10-21T01:12:01.855Z,11.50
2022-10-21T01:14:34.502Z,11.60
2022-10-21T01:17:44.170Z,11.60
2022-10-21T01:20:50.053Z,11.60
2022-10-21T01:23:28.374Z,11.60
2022-10-21T01:26:01.001Z,11.60
2022-10-21T01:28:43.495Z,11.60
2022-10-21T01:31:48.463Z,11.60
2022-10-21T01:34:38.822Z,11.60
2022-10-21T01:37:10.925Z,11.60
2022-10-21T01:39:49.388Z,11.60
2022-10-21T01:42:33.870Z,11.60
2022-10-21T01:45:13.050Z,11.70
2022-10-21T01:48:01.567Z,11.70
2022-10-21T01:50:33.619Z,11.80
2022-10-21T01:53:05.158Z,11.80
2022-10-21T01:55:33.033Z,11.80
2022-10-21T01:58:05.213Z,11.80
2022-10-21T02:00:35.056Z,11.80
2022-10-21T02:03:05.169Z,11.80
2022-10-21T02:05:34.092Z,11.80
2022-10-21T02:08:01.140Z,11.80
2022-10-21T02:10:31.930Z,11.80
2022-10-21T02:13:02.096Z,11.70
2022-10-21T02:15:30.217Z,11.70
2022-10-21T02:18:08.429Z,11.60
2022-10-21T02:20:39.670Z,11.60
2022-10-21T02:23:09.208Z,11.70
2022-10-21T02:25:40.617Z,11.70
2022-10-21T02:28:08.082Z,11.70
2022-10-21T02:31:04.278Z,11.70
2022-10-21T02:33:48.491Z,11.70
2022-10-21T02:36:23.058Z,11.70
2022-10-21T02:38:58.656Z,11.70
2022-10-21T02:41:27.092Z,11.70
2022-10-21T02:44:02.262Z,11.70
2022-10-21T02:46:37.777Z,11.70
2022-10-21T02:49:04.698Z,11.80
2022-10-21T02:51:31.605Z,11.70
2022-10-21T02:53:59.032Z,11.70
2022-10-21T02:56:26.647Z,11.70
2022-10-21T02:58:54.064Z,11.70
2022-10-21T03:01:20.862Z,11.70
2022-10-21T03:03:47.596Z,11.70
2022-10-21T03:06:14.373Z,11.70
2022-10-21T03:08:41.057Z,11.80
2022-10-21T03:11:07.770Z,11.70
2022-10-21T03:13:34.436Z,11.60
2022-10-21T03:16:01.099Z,11.60
2022-10-21T03:18:27.748Z,11.50
2022-10-21T03:20:54.401Z,11.50
2022-10-21T03:23:21.237Z,11.30
2022-10-21T03:25:48.250Z,11.30
2022-10-21T03:28:14.939Z,11.30
2022-10-21T03:30:41.786Z,11.30
2022-10-21T03:33:08.544Z,11.30
2022-10-21T03:35:35.224Z,11.30
2022-10-21T03:38:02.011Z,11.30
2022-10-21T03:40:30.224Z,11.30
2022-10-21T03:42:58.085Z,11.30
2022-10-21T03:45:25.437Z,11.30
2022-10-21T03:47:52.777Z,11.30
2022-10-21T03:50:23.637Z,11.30
2022-10-21T03:52:52.283Z,11.30
2022-10-21T03:55:20.854Z,11.40
2022-10-21T03:57:48.224Z,11.40
2022-10-21T04:00:15.453Z,11.40
2022-10-21T04:02:42.272Z,11.40
2022-10-21T04:05:09.606Z,11.50
2022-10-21T04:07:36.631Z,11.40
2022-10-21T04:10:04.749Z,11.40
2022-10-21T04:12:31.606Z,11.50
2022-10-21T04:14:58.282Z,11.50
2022-10-21T04:17:24.965Z,11.50
2022-10-21T04:19:51.626Z,11.50
2022-10-21T04:22:18.377Z,11.50
2022-10-21T04:24:45.044Z,11.60
2022-10-21T04:27:12.438Z,11.60
2022-10-21T04:29:39.101Z,11.60
2022-10-21T04:32:05.818Z,11.50
2022-10-21T04:34:32.481Z,11.50
2022-10-21T04:37:01.165Z,11.50
2022-10-21T04:39:30.919Z,11.50
2022-10-21T04:41:57.571Z,11.50
2022-10-21T04:44:24.200Z,11.50
2022-10-21T04:46:50.898Z,11.50
2022-10-21T04:49:17.646Z,11.60
2022-10-21T04:51:44.290Z,11.60
2022-10-21T04:54:11.196Z,11.60
2022-10-21T04:56:37.850Z,11.60
2022-10-21T04:59:04.493Z,11.50
2022-10-21T05:01:31.243Z,11.50
2022-10-21T05:03:58.003Z,11.40
2022-10-21T05:06:24.654Z,11.40
2022-10-21T05:08:51.390Z,11.40
2022-10-21T05:11:18.073Z,11.30
2022-10-21T05:13:45.558Z,11.30
2022-10-21T05:16:12.363Z,11.30
2022-10-21T05:18:39.045Z,11.20
2022-10-21T05:21:05.858Z,11.20
2022-10-21T05:23:32.580Z,11.20
2022-10-21T05:25:59.282Z,11.20
2022-10-21T05:28:25.906Z,11.20
2022-10-21T05:30:53.409Z,11.20
2022-10-21T05:33:20.044Z,11.20
2022-10-21T05:36:05.078Z,11.20
2022-10-21T05:38:31.801Z,11.20
2022-10-21T05:40:59.125Z,11.10
2022-10-21T05:43:27.841Z,11.10
2022-10-21T05:45:54.661Z,11.10
2022-10-21T05:48:21.817Z,11.10
2022-10-21T05:50:52.486Z,11.20
2022-10-21T05:53:19.720Z,11.20
2022-10-21T05:55:54.039Z,11.20
2022-10-21T05:58:20.681Z,11.30
2022-10-21T06:00:48.461Z,11.30
2022-10-21T06:03:15.142Z,11.30
2022-10-21T06:05:41.872Z,11.40
2022-10-21T06:08:08.542Z,11.40
2022-10-21T06:10:35.199Z,11.40
2022-10-21T06:13:02.034Z,11.40
2022-10-21T06:15:28.713Z,11.50
2022-10-21T06:17:55.382Z,11.60
2022-10-21T06:20:22.052Z,11.60
2022-10-21T06:22:48.846Z,11.60
2022-10-21T06:27:47.364Z,11.80
2022-10-21T06:30:14.040Z,11.80
2022-10-21T06:32:40.700Z,11.90
2022-10-21T06:35:07.698Z,12.00
2022-10-21T06:37:34.344Z,12.10
2022-10-21T06:40:01.027Z,12.10
2022-10-21T06:42:27.670Z,12.20
2022-10-21T06:44:56.685Z,12.20
2022-10-21T06:47:26.278Z,12.30
2022-10-21T06:49:53.021Z,12.40
2022-10-21T06:52:19.783Z,12.50
2022-10-21T06:54:46.565Z,12.60
2022-10-21T06:57:13.214Z,12.60
2022-10-21T06:59:39.868Z,12.70
2022-10-21T07:02:06.935Z,12.70
2022-10-21T07:04:33.674Z,12.70
2022-10-21T07:07:00.432Z,12.80
2022-10-21T07:09:27.146Z,12.80
2022-10-21T07:11:54.876Z,12.80
2022-10-21T07:14:21.664Z,12.80
2022-10-21T07:16:48.364Z,12.80
2022-10-21T07:19:15.340Z,12.80
2022-10-21T07:21:42.044Z,12.80
2022-10-21T07:24:10.489Z,12.80
2022-10-21T07:26:37.176Z,12.80
2022-10-21T07:29:04.932Z,12.80
2022-10-21T07:31:34.900Z,12.80
2022-10-21T07:36:37.178Z,12.80
2022-10-21T07:39:08.292Z,12.80
2022-10-21T07:41:38.863Z,12.90
2022-10-21T07:44:06.314Z,13.00
2022-10-21T07:46:33.168Z,13.00
2022-10-21T07:48:59.843Z,13.00
2022-10-21T07:51:28.701Z,13.00
2022-10-21T07:53:59.733Z,13.10
2022-10-21T07:56:39.299Z,13.20
2022-10-21T07:59:11.651Z,13.30
2022-10-21T08:01:44.382Z,13.30
2022-10-21T08:04:14.170Z,13.30
2022-10-21T08:06:41.036Z,13.30
2022-10-21T08:09:07.905Z,13.30
2022-10-21T08:11:34.909Z,13.30
2022-10-21T08:14:03.113Z,13.30
2022-10-21T08:16:29.761Z,13.30
2022-10-21T08:18:59.109Z,13.50
2022-10-21T08:21:25.778Z,13.50
2022-10-21T08:23:52.502Z,13.70
2022-10-21T08:26:19.234Z,13.90
2022-10-21T08:28:45.996Z,14.00
2022-10-21T08:31:16.001Z,14.00
2022-10-21T08:33:43.520Z,14.10
2022-10-21T08:36:15.055Z,14.30
2022-10-21T08:38:41.894Z,14.40
2022-10-21T08:41:38.416Z,14.50
2022-10-21T08:44:22.894Z,14.80
2022-10-21T08:47:13.712Z,14.90
2022-10-21T08:49:40.338Z,15.00
2022-10-21T08:52:12.972Z,15.10
2022-10-21T08:54:48.096Z,15.20
2022-10-21T08:57:15.556Z,15.20
2022-10-21T08:59:42.714Z,15.20
2022-10-21T09:02:32.468Z,15.10
2022-10-21T09:05:30.368Z,15.20
2022-10-21T09:08:12.313Z,15.20
2022-10-21T09:10:42.013Z,15.20
2022-10-21T09:13:41.609Z,15.20
2022-10-21T09:16:25.568Z,15.10
2022-10-21T09:19:32.029Z,15.10
2022-10-21T09:22:22.886Z,15.10
2022-10-21T09:25:17.496Z,15.10
2022-10-21T09:27:55.491Z,15.10
2022-10-21T09:30:23.964Z,15.10
2022-10-21T09:32:56.101Z,15.00
2022-10-21T09:35:36.496Z,15.00
2022-10-21T09:38:11.925Z,14.90
2022-10-21T09:40:38.612Z,15.00
2022-10-21T09:43:11.140Z,14.90
2022-10-21T09:45:43.926Z,14.90
2022-10-21T09:48:19.884Z,14.90
2022-10-21T09:50:49.893Z,15.00
2022-10-21T09:53:31.542Z,15.00
2022-10-21T09:56:23.238Z,15.10
2022-10-21T09:59:12.183Z,15.00
2022-10-21T10:01:41.413Z,15.00
2022-10-21T10:04:30.444Z,15.10
2022-10-21T10:06:59.846Z,14.90
2022-10-21T10:09:34.552Z,14.70
2022-10-21T10:12:02.326Z,14.60
2022-10-21T10:14:31.429Z,14.50
2022-10-21T10:17:18.418Z,14.30
2022-10-21T10:20:05.212Z,14.20
2022-10-21T10:22:41.931Z,14.10
2022-10-21T10:25:14.706Z,14.00
2022-10-21T10:28:00.106Z,14.00
2022-10-21T10:30:42.892Z,13.90
2022-10-21T10:33:17.051Z,14.00
2022-10-21T10:36:03.353Z,14.10
2022-10-21T10:39:09.046Z,14.00
2022-10-21T10:41:39.204Z,14.00
2022-10-21T10:44:30.988Z,13.90
2022-10-21T10:46:59.946Z,14.00
2022-10-21T10:49:28.639Z,14.10
2022-10-21T10:52:06.429Z,14.10
2022-10-21T10:54:33.191Z,14.00
2022-10-21T10:57:20.140Z,14.10
2022-10-21T10:59:55.402Z,14.00
2022-10-21T11:02:38.128Z,14.00
2022-10-21T11:05:26.492Z,14.10
2022-10-21T11:08:30.746Z,14.20
2022-10-21T11:11:04.198Z,14.30
2022-10-21T11:13:33.899Z,14.30
2022-10-21T11:16:27.802Z,14.40
2022-10-21T11:19:17.017Z,14.40
2022-10-21T11:21:54.065Z,14.40
2022-10-21T11:24:28.558Z,14.50
2022-10-21T11:26:58.905Z,14.50
2022-10-21T11:29:44.049Z,14.40
2022-10-21T11:32:19.783Z,14.30
2022-10-21T11:35:01.605Z,14.30
2022-10-21T11:37:31.038Z,14.30
2022-10-21T11:40:15.805Z,14.20
2022-10-21T11:42:46.811Z,14.20
2022-10-21T11:45:32.324Z,14.20
2022-10-21T11:48:07.877Z,14.30
2022-10-21T11:50:56.400Z,14.30
2022-10-21T11:53:39.382Z,14.40
2022-10-21T11:56:28.176Z,14.40
2022-10-21T11:59:01.279Z,14.40
2022-10-21T12:01:47.114Z,14.40
2022-10-21T12:04:28.763Z,14.50
2022-10-21T12:07:08.938Z,14.50
2022-10-21T12:10:21.219Z,14.50
2022-10-21T12:12:50.604Z,14.40
2022-10-21T12:15:35.335Z,14.50
2022-10-21T12:18:04.787Z,14.60
2022-10-21T12:20:33.197Z,14.70
2022-10-21T12:23:06.488Z,14.90
2022-10-21T12:25:48.230Z,15.00
2022-10-21T12:28:47.088Z,15.20
2022-10-21T12:31:32.283Z,15.30
2022-10-21T12:33:59.218Z,15.50
2022-10-21T12:36:46.589Z,15.60
2022-10-21T12:39:17.924Z,15.80
2022-10-21T12:41:47.707Z,15.90
2022-10-21T12:44:25.647Z,16.00
2022-10-21T12:46:56.059Z,16.10
2022-10-21T12:49:26.457Z,16.20
2022-10-21T12:52:18.193Z,16.30
2022-10-21T12:54:58.567Z,16.40
2022-10-21T12:57:34.154Z,16.50
2022-10-21T13:03:09.163Z,16.80
2022-10-21T13:05:38.533Z,16.90
2022-10-21T13:08:20.260Z,17.10
2022-10-21T13:11:09.965Z,17.20
2022-10-21T13:13:37.876Z,17.30
2022-10-21T13:16:19.899Z,17.40
2022-10-21T13:19:26.361Z,17.50
2022-10-21T13:22:35.927Z,17.50
2022-10-21T13:25:26.557Z,17.50
2022-10-21T13:28:12.161Z,17.50
2022-10-21T13:30:56.414Z,17.50
2022-10-21T13:33:29.701Z,17.40
2022-10-21T13:36:10.181Z,17.40
2022-10-21T13:38:46.592Z,17.40
2022-10-21T13:41:30.737Z,17.40
2022-10-21T13:44:05.254Z,17.40
2022-10-21T13:46:43.615Z,17.40
2022-10-21T13:49:32.053Z,17.30
2022-10-21T13:51:59.247Z,17.20
2022-10-21T13:54:33.792Z,17.20
2022-10-21T13:57:06.962Z,17.20
2022-10-21T13:59:34.869Z,17.10
2022-10-21T14:02:02.144Z,17.10
2022-10-21T14:04:31.072Z,17.00
2022-10-21T14:07:04.847Z,17.00
2022-10-21T14:09:40.671Z,17.00
2022-10-21T14:12:27.723Z,16.90
2022-10-21T14:14:57.326Z,16.90
2022-10-21T14:17:27.214Z,16.90
2022-10-21T14:19:58.885Z,16.90
2022-10-21T14:22:29.069Z,16.90
2022-10-21T14:24:57.788Z,16.70
2022-10-21T14:27:29.977Z,16.70
2022-10-21T14:29:58.091Z,16.60
2022-10-21T14:32:26.431Z,16.50
2022-10-21T14:34:59.284Z,16.30
2022-10-21T14:37:25.989Z,16.20
2022-10-21T14:39:52.772Z,16.10
2022-10-21T14:42:24.879Z,16.00
2022-10-21T14:44:55.978Z,16.00
2022-10-21T14:47:25.435Z,15.90
2022-10-21T14:49:55.568Z,15.90
2022-10-21T14:52:32.765Z,15.90
2022-10-21T14:55:02.765Z,15.90
2022-10-21T14:57:48.002Z,15.90
2022-10-21T15:00:30.080Z,15.90
2022-10-21T15:02:59.548Z,15.80
2022-10-21T15:05:32.007Z,15.80
2022-10-21T15:08:20.442Z,15.80
2022-10-21T15:11:05.438Z,15.80
2022-10-21T15:13:33.273Z,15.70
2022-10-21T15:16:01.636Z,15.70
2022-10-21T15:18:38.942Z,15.70
2022-10-21T15:21:05.702Z,15.70
2022-10-21T15:23:42.813Z,15.70
2022-10-21T15:26:15.401Z,15.70
2022-10-21T15:28:42.262Z,15.70
2022-10-21T15:31:19.934Z,15.70
2022-10-21T15:33:48.994Z,15.60
2022-10-21T15:36:16.162Z,15.60
2022-10-21T15:38:48.870Z,15.60
2022-10-21T15:41:18.421Z,15.50
2022-10-21T15:43:54.085Z,15.50
2022-10-21T15:46:21.048Z,15.50
2022-10-21T15:48:47.805Z,15.50
2022-10-21T15:51:14.626Z,15.50
2022-10-21T15:53:44.449Z,15.40
2022-10-21T15:56:19.430Z,15.40
2022-10-21T15:58:46.292Z,15.40
2022-10-21T16:01:15.338Z,15.30
2022-10-21T16:03:42.585Z,15.30
2022-10-21T16:06:20.540Z,15.20
2022-10-21T16:08:48.824Z,15.20
2022-10-21T16:11:25.543Z,15.20
2022-10-21T16:14:01.633Z,15.20
2022-10-21T16:16:28.459Z,15.20
2022-10-21T16:18:55.651Z,15.10
2022-10-21T16:21:23.064Z,15.10
2022-10-21T16:23:49.969Z,15.10
2022-10-21T16:26:25.513Z,15.00
2022-10-21T16:28:53.994Z,15.00
2022-10-21T16:31:21.572Z,15.00
2022-10-21T16:33:48.399Z,14.90
2022-10-21T16:36:16.790Z,14.90
2022-10-21T16:38:44.932Z,14.90
2022-10-21T16:41:13.535Z,14.90
2022-10-21T16:43:41.021Z,14.90
2022-10-21T16:46:24.900Z,14.90
2022-10-21T16:48:52.452Z,14.80
2022-10-21T16:51:20.257Z,14.80
2022-10-21T16:53:46.922Z,14.80
2022-10-21T16:56:13.680Z,14.80
2022-10-21T16:58:40.365Z,14.80
2022-10-21T17:01:08.497Z,14.80
2022-10-21T17:03:35.385Z,14.70
2022-10-21T17:06:02.392Z,14.80
2022-10-21T17:08:29.283Z,14.70
2022-10-21T17:10:56.139Z,14.70
2022-10-21T17:13:22.832Z,14.70
2022-10-21T17:15:49.581Z,14.70
2022-10-21T17:18:16.223Z,14.70
2022-10-21T17:20:43.057Z,14.70
2022-10-21T17:23:10.753Z,14.60
2022-10-21T17:25:37.492Z,14.60
2022-10-21T17:28:04.548Z,14.60
2022-10-21T17:30:31.232Z,14.60
2022-10-21T17:33:00.217Z,14.60
2022-10-21T17:35:26.929Z,14.60
2022-10-21T17:37:53.631Z,14.60
2022-10-21T17:40:26.897Z,14.60
2022-10-21T17:42:53.845Z,14.60
2022-10-21T17:45:21.621Z,14.50
2022-10-21T17:47:49.763Z,14.50
2022-10-21T17:50:23.159Z,14.50
2022-10-21T17:52:51.215Z,14.50
2022-10-21T17:55:18.396Z,14.50
2022-10-21T17:57:45.288Z,14.60
2022-10-21T18:00:12.371Z,14.60
2022-10-21T18:02:39.807Z,14.60
2022-10-21T18:05:08.940Z,14.60
2022-10-21T18:07:35.745Z,14.60
2022-10-21T18:10:02.709Z,14.60
2022-10-21T18:12:30.319Z,14.60
2022-10-21T18:14:57.066Z,14.60
2022-10-21T18:17:23.907Z,14.60
2022-10-21T18:19:51.744Z,14.60
2022-10-21T18:22:18.508Z,14.60
2022-10-21T18:24:45.220Z,14.60
2022-10-21T18:27:12.034Z,14.50
2022-10-21T18:29:38.686Z,14.50
2022-10-21T18:32:05.475Z,14.50
2022-10-21T18:34:32.197Z,14.40
2022-10-21T18:36:59.792Z,14.40
2022-10-21T18:39:26.948Z,14.40
2022-10-21T18:41:53.873Z,14.40
2022-10-21T18:44:20.712Z,14.50
2022-10-21T18:46:50.169Z,14.50
2022-10-21T18:49:19.122Z,14.50
2022-10-21T18:51:45.821Z,14.50
2022-10-21T18:54:13.580Z,14.40
2022-10-21T18:56:41.098Z,14.40
2022-10-21T18:59:07.976Z,14.40
2022-10-21T19:01:34.730Z,14.30
2022-10-21T19:04:01.629Z,14.30
2022-10-21T19:06:33.381Z,14.30
2022-10-21T19:09:01.476Z,14.30
2022-10-21T19:11:29.380Z,14.30
2022-10-21T19:13:56.542Z,14.30
2022-10-21T19:16:23.390Z,14.30
2022-10-21T19:18:50.291Z,14.20
2022-10-21T19:21:19.490Z,14.20
2022-10-21T19:23:46.223Z,14.20
2022-10-21T19:26:14.321Z,14.20
2022-10-21T19:28:41.247Z,14.20
2022-10-21T19:31:10.998Z,14.20
2022-10-21T19:33:39.120Z,14.20
2022-10-21T19:36:07.482Z,14.30
2022-10-21T19:38:50.047Z,14.30
2022-10-21T19:41:19.892Z,14.30
2022-10-21T19:43:47.572Z,14.30
2022-10-21T19:46:20.067Z,14.30
2022-10-21T19:48:49.466Z,14.40
2022-10-21T19:51:18.073Z,14.40
2022-10-21T19:53:45.748Z,14.40
2022-10-21T19:56:13.773Z,14.40
2022-10-21T19:58:40.906Z,14.40
2022-10-21T20:01:10.614Z,14.40
2022-10-21T20:03:41.939Z,14.30
2022-10-21T20:06:17.738Z,14.40
2022-10-21T20:08:44.545Z,14.40
2022-10-21T20:11:14.998Z,14.40
2022-10-21T20:13:43.085Z,14.40
2022-10-21T20:16:21.029Z,14.40
2022-10-21T20:18:47.811Z,14.40
2022-10-21T20:21:14.917Z,14.40
2022-10-21T20:23:41.747Z,14.40
2022-10-21T20:26:08.940Z,14.40
2022-10-21T20:28:35.729Z,14.40
2022-10-21T20:31:08.929Z,14.40
2022-10-21T20:33:38.672Z,14.40
2022-10-21T20:36:07.666Z,14.40
2022-10-21T20:38:34.395Z,14.40
2022-10-21T20:41:06.494Z,14.40
2022-10-21T20:43:38.124Z,14.30
2022-10-21T20:46:09.049Z,14.30
2022-10-21T20:48:39.445Z,14.30
2022-10-21T20:51:12.109Z,14.30
2022-10-21T20:53:40.350Z,14.30
2022-10-21T20:56:07.592Z,14.30
2022-10-21T20:58:36.578Z,14.30
2022-10-21T21:01:22.113Z,14.20
2022-10-21T21:03:50.086Z,14.30
2022-10-21T21:06:17.372Z,14.30
2022-10-21T21:08:48.771Z,14.30
2022-10-21T21:11:20.745Z,14.30
2022-10-21T21:13:48.439Z,14.30
2022-10-21T21:16:17.529Z,14.30
2022-10-21T21:18:50.724Z,14.30
2022-10-21T21:21:19.794Z,14.30
2022-10-21T21:23:46.676Z,14.30
2022-10-21T21:26:17.421Z,14.30
2022-10-21T21:28:44.696Z,14.30
2022-10-21T21:31:12.652Z,14.30
2022-10-21T21:33:39.843Z,14.20
2022-10-21T21:36:06.852Z,14.20
2022-10-21T21:38:34.742Z,14.20
2022-10-21T21:41:02.878Z,14.20
2022-10-21T21:43:31.695Z,14.20
2022-10-21T21:45:58.869Z,14.20
2022-10-21T21:48:26.008Z,14.20
2022-10-21T21:51:00.752Z,14.20
2022-10-21T21:53:27.415Z,14.10
2022-10-21T21:55:54.073Z,14.10
2022-10-21T21:58:20.860Z,14.10
2022-10-21T22:00:47.541Z,14.00
2022-10-21T22:03:14.251Z,14.00
2022-10-21T22:05:40.898Z,14.00
2022-10-21T22:08:07.589Z,14.00
2022-10-21T22:10:34.324Z,14.00
2022-10-21T22:13:01.018Z,14.00
2022-10-21T22:15:47.735Z,14.00
2022-10-21T22:18:14.513Z,14.00
2022-10-21T22:20:41.229Z,13.90
2022-10-21T22:23:08.020Z,13.90
2022-10-21T22:25:35.155Z,13.90
2022-10-21T22:28:01.939Z,13.90
2022-10-21T22:30:28.647Z,13.90
2022-10-21T22:32:55.444Z,13.90
2022-10-21T22:35:22.132Z,13.90
2022-10-21T22:37:48.775Z,13.90
2022-10-21T22:40:15.472Z,13.80
2022-10-21T22:42:42.229Z,13.80
2022-10-21T22:45:09.104Z,13.80
2022-10-21T22:47:35.767Z,13.70
2022-10-21T22:50:02.482Z,13.70
2022-10-21T22:52:30.042Z,13.70
2022-10-21T22:54:57.260Z,13.70
2022-10-21T22:57:23.957Z,13.70
2022-10-21T22:59:53.303Z,13.70
2022-10-21T23:02:20.397Z,13.60
2022-10-21T23:04:47.096Z,13.60
2022-10-21T23:07:13.815Z,13.60
2022-10-21T23:09:40.497Z,13.60
2022-10-21T23:12:07.249Z,13.60
2022-10-21T23:14:33.922Z,13.60
2022-10-21T23:17:00.565Z,13.60
2022-10-21T23:19:27.310Z,13.50
2022-10-21T23:21:53.978Z,13.50
2022-10-21T23:24:21.197Z,13.50
2022-10-21T23:26:47.882Z,13.40
2022-10-21T23:29:14.675Z,13.50
2022-10-21T23:31:42.548Z,13.50
2022-10-21T23:34:09.611Z,13.50
2022-10-21T23:36:36.445Z,13.50
2022-10-21T23:39:04.151Z,13.50
2022-10-21T23:41:30.928Z,13.50
2022-10-21T23:43:57.718Z,13.50
2022-10-21T23:46:24.400Z,13.50
2022-10-21T23:48:51.203Z,13.50
2022-10-21T23:51:18.145Z,13.60
2022-10-21T23:53:44.876Z,13.60
2022-10-21T23:56:11.617Z,13.60
2022-10-21T23:58:38.464Z,13.60
